sensor_id;sensor_type;location;lat;lon;timestamp;P1;durP1;ratioP1;P2;durP2;ratioP2
10416;SDS011;62605;49.432;8.680;2022-11-15T00:00:34;2.30;;;1.77;;
10416;SDS011;62605;49.432;8.680;2022-11-15T00:03:01;2.10;;;1.73;;
10416;SDS011;62605;49.432;8.680;2022-11-15T00:05:28;3.30;;;2.17;;
10416;SDS011;62605;49.432;8.680;2022-11-15T00:07:56;3.90;;;2.13;;
10416;SDS011;62605;49.432;8.680;2022-11-15T00:10:23;2.73;;;2.13;;
10416;SDS011;62605;49.432;8.680;2022-11-15T00:12:50;2.00;;;1.70;;
10416;SDS011;62605;49.432;8.680;2022-11-15T00:15:17;2.17;;;1.80;;
10416;SDS011;62605;49.432;8.680;2022-11-15T00:17:45;3.43;;;2.10;;
10416;SDS011;62605;49.432;8.680;2022-11-15T00:20:14;2.60;;;2.10;;
10416;SDS011;62605;49.432;8.680;2022-11-15T00:22:42;2.93;;;1.80;;
10416;SDS011;62605;49.432;8.680;2022-11-15T00:25:09;2.27;;;1.80;;
10416;SDS011;62605;49.432;8.680;2022-11-15T00:27:36;3.23;;;1.77;;
10416;SDS011;62605;49.432;8.680;2022-11-15T00:30:04;2.37;;;1.90;;
10416;SDS011;62605;49.432;8.680;2022-11-15T00:32:32;2.60;;;2.10;;
10416;SDS011;62605;49.432;8.680;2022-11-15T00:35:00;1.87;;;1.67;;
10416;SDS011;62605;49.432;8.680;2022-11-15T00:37:27;3.20;;;1.53;;
10416;SDS011;62605;49.432;8.680;2022-11-15T00:39:54;3.30;;;2.23;;
10416;SDS011;62605;49.432;8.680;2022-11-15T00:42:21;3.57;;;2.00;;
10416;SDS011;62605;49.432;8.680;2022-11-15T00:44:48;4.30;;;2.07;;
10416;SDS011;62605;49.432;8.680;2022-11-15T00:47:15;2.27;;;1.90;;
10416;SDS011;62605;49.432;8.680;2022-11-15T00:49:42;4.57;;;2.27;;
10416;SDS011;62605;49.432;8.680;2022-11-15T00:52:10;2.97;;;1.63;;
10416;SDS011;62605;49.432;8.680;2022-11-15T00:54:37;2.20;;;1.97;;
10416;SDS011;62605;49.432;8.680;2022-11-15T00:57:04;2.33;;;1.70;;
10416;SDS011;62605;49.432;8.680;2022-11-15T00:59:31;3.37;;;2.10;;
10416;SDS011;62605;49.432;8.680;2022-11-15T01:01:58;2.40;;;2.03;;
10416;SDS011;62605;49.432;8.680;2022-11-15T01:04:26;3.63;;;2.07;;
10416;SDS011;62605;49.432;8.680;2022-11-15T01:06:53;2.00;;;1.80;;
10416;SDS011;62605;49.432;8.680;2022-11-15T01:09:22;5.23;;;2.33;;
10416;SDS011;62605;49.432;8.680;2022-11-15T01:11:49;2.73;;;1.90;;
10416;SDS011;62605;49.432;8.680;2022-11-15T01:14:16;2.07;;;1.63;;
10416;SDS011;62605;49.432;8.680;2022-11-15T01:16:43;2.87;;;1.87;;
10416;SDS011;62605;49.432;8.680;2022-11-15T01:19:10;2.63;;;2.17;;
10416;SDS011;62605;49.432;8.680;2022-11-15T01:21:37;3.70;;;2.10;;
10416;SDS011;62605;49.432;8.680;2022-11-15T01:24:05;1.90;;;1.70;;
10416;SDS011;62605;49.432;8.680;2022-11-15T01:26:34;2.40;;;1.90;;
10416;SDS011;62605;49.432;8.680;2022-11-15T01:29:01;2.77;;;2.07;;
10416;SDS011;62605;49.432;8.680;2022-11-15T01:31:28;1.87;;;1.60;;
10416;SDS011;62605;49.432;8.680;2022-11-15T01:33:55;2.93;;;1.93;;
10416;SDS011;62605;49.432;8.680;2022-11-15T01:36:25;4.30;;;1.97;;
10416;SDS011;62605;49.432;8.680;2022-11-15T01:38:52;2.93;;;1.90;;
10416;SDS011;62605;49.432;8.680;2022-11-15T01:41:21;2.30;;;1.70;;
10416;SDS011;62605;49.432;8.680;2022-11-15T01:43:51;3.27;;;2.00;;
10416;SDS011;62605;49.432;8.680;2022-11-15T01:46:24;2.13;;;1.87;;
10416;SDS011;62605;49.432;8.680;2022-11-15T01:48:57;2.10;;;1.90;;
10416;SDS011;62605;49.432;8.680;2022-11-15T01:51:28;2.27;;;1.60;;
10416;SDS011;62605;49.432;8.680;2022-11-15T01:53:58;4.17;;;1.80;;
10416;SDS011;62605;49.432;8.680;2022-11-15T01:56:27;2.10;;;1.67;;
10416;SDS011;62605;49.432;8.680;2022-11-15T01:59:02;3.80;;;1.90;;
10416;SDS011;62605;49.432;8.680;2022-11-15T02:01:32;2.43;;;1.70;;
10416;SDS011;62605;49.432;8.680;2022-11-15T02:04:01;2.33;;;1.77;;
10416;SDS011;62605;49.432;8.680;2022-11-15T02:06:32;1.83;;;1.50;;
10416;SDS011;62605;49.432;8.680;2022-11-15T02:09:00;6.00;;;2.00;;
10416;SDS011;62605;49.432;8.680;2022-11-15T02:11:27;1.97;;;1.50;;
10416;SDS011;62605;49.432;8.680;2022-11-15T02:13:55;1.80;;;1.53;;
10416;SDS011;62605;49.432;8.680;2022-11-15T02:16:25;2.27;;;1.63;;
10416;SDS011;62605;49.432;8.680;2022-11-15T02:19:00;1.53;;;1.43;;
10416;SDS011;62605;49.432;8.680;2022-11-15T02:21:33;2.97;;;2.00;;
10416;SDS011;62605;49.432;8.680;2022-11-15T02:24:34;2.90;;;1.47;;
10416;SDS011;62605;49.432;8.680;2022-11-15T02:27:34;2.33;;;1.70;;
10416;SDS011;62605;49.432;8.680;2022-11-15T02:30:23;5.03;;;1.47;;
10416;SDS011;62605;49.432;8.680;2022-11-15T02:32:52;4.13;;;2.10;;
10416;SDS011;62605;49.432;8.680;2022-11-15T02:35:27;2.20;;;1.50;;
10416;SDS011;62605;49.432;8.680;2022-11-15T02:38:04;1.47;;;1.37;;
10416;SDS011;62605;49.432;8.680;2022-11-15T02:40:38;2.97;;;2.03;;
10416;SDS011;62605;49.432;8.680;2022-11-15T02:43:12;2.90;;;1.67;;
10416;SDS011;62605;49.432;8.680;2022-11-15T02:46:05;1.47;;;1.30;;
10416;SDS011;62605;49.432;8.680;2022-11-15T02:48:35;3.33;;;1.70;;
10416;SDS011;62605;49.432;8.680;2022-11-15T02:51:03;2.70;;;1.70;;
10416;SDS011;62605;49.432;8.680;2022-11-15T02:53:31;1.87;;;1.50;;
10416;SDS011;62605;49.432;8.680;2022-11-15T02:55:58;1.60;;;1.50;;
10416;SDS011;62605;49.432;8.680;2022-11-15T02:58:31;1.87;;;1.47;;
10416;SDS011;62605;49.432;8.680;2022-11-15T03:01:15;3.33;;;2.03;;
10416;SDS011;62605;49.432;8.680;2022-11-15T03:03:55;2.17;;;1.80;;
10416;SDS011;62605;49.432;8.680;2022-11-15T03:06:30;1.93;;;1.53;;
10416;SDS011;62605;49.432;8.680;2022-11-15T03:09:04;1.80;;;1.60;;
10416;SDS011;62605;49.432;8.680;2022-11-15T03:11:36;2.50;;;1.53;;
10416;SDS011;62605;49.432;8.680;2022-11-15T03:14:08;2.50;;;1.70;;
10416;SDS011;62605;49.432;8.680;2022-11-15T03:16:47;1.87;;;1.70;;
10416;SDS011;62605;49.432;8.680;2022-11-15T03:19:19;7.27;;;1.97;;
10416;SDS011;62605;49.432;8.680;2022-11-15T03:21:52;2.07;;;1.77;;
10416;SDS011;62605;49.432;8.680;2022-11-15T03:24:24;1.50;;;1.40;;
10416;SDS011;62605;49.432;8.680;2022-11-15T03:26:53;3.30;;;1.67;;
10416;SDS011;62605;49.432;8.680;2022-11-15T03:29:22;1.90;;;1.57;;
10416;SDS011;62605;49.432;8.680;2022-11-15T03:31:55;2.37;;;1.63;;
10416;SDS011;62605;49.432;8.680;2022-11-15T03:34:27;2.73;;;1.80;;
10416;SDS011;62605;49.432;8.680;2022-11-15T03:36:58;2.37;;;1.90;;
10416;SDS011;62605;49.432;8.680;2022-11-15T03:39:25;2.20;;;1.83;;
10416;SDS011;62605;49.432;8.680;2022-11-15T03:41:56;1.73;;;1.60;;
10416;SDS011;62605;49.432;8.680;2022-11-15T03:44:36;2.63;;;1.50;;
10416;SDS011;62605;49.432;8.680;2022-11-15T03:47:09;2.33;;;1.60;;
10416;SDS011;62605;49.432;8.680;2022-11-15T03:49:41;3.43;;;1.73;;
10416;SDS011;62605;49.432;8.680;2022-11-15T03:52:12;2.27;;;1.90;;
10416;SDS011;62605;49.432;8.680;2022-11-15T03:54:47;2.03;;;1.40;;
10416;SDS011;62605;49.432;8.680;2022-11-15T03:57:19;2.07;;;1.30;;
10416;SDS011;62605;49.432;8.680;2022-11-15T03:59:47;2.37;;;1.53;;
10416;SDS011;62605;49.432;8.680;2022-11-15T04:02:16;2.87;;;1.63;;
10416;SDS011;62605;49.432;8.680;2022-11-15T04:04:43;2.03;;;1.50;;
10416;SDS011;62605;49.432;8.680;2022-11-15T04:07:10;1.50;;;1.40;;
10416;SDS011;62605;49.432;8.680;2022-11-15T04:09:37;1.97;;;1.53;;
10416;SDS011;62605;49.432;8.680;2022-11-15T04:12:25;1.73;;;1.60;;
10416;SDS011;62605;49.432;8.680;2022-11-15T04:14:57;3.20;;;1.53;;
10416;SDS011;62605;49.432;8.680;2022-11-15T04:17:37;3.73;;;1.70;;
10416;SDS011;62605;49.432;8.680;2022-11-15T04:20:13;5.30;;;2.23;;
10416;SDS011;62605;49.432;8.680;2022-11-15T04:23:00;7.00;;;2.07;;
10416;SDS011;62605;49.432;8.680;2022-11-15T04:25:46;3.47;;;1.80;;
10416;SDS011;62605;49.432;8.680;2022-11-15T04:28:15;3.23;;;1.73;;
10416;SDS011;62605;49.432;8.680;2022-11-15T04:30:43;5.00;;;1.50;;
10416;SDS011;62605;49.432;8.680;2022-11-15T04:33:11;4.40;;;2.10;;
10416;SDS011;62605;49.432;8.680;2022-11-15T04:35:38;3.87;;;1.90;;
10416;SDS011;62605;49.432;8.680;2022-11-15T04:38:06;1.83;;;1.40;;
10416;SDS011;62605;49.432;8.680;2022-11-15T04:40:33;1.97;;;1.63;;
10416;SDS011;62605;49.432;8.680;2022-11-15T04:43:01;2.97;;;1.33;;
10416;SDS011;62605;49.432;8.680;2022-11-15T04:45:28;3.30;;;2.00;;
10416;SDS011;62605;49.432;8.680;2022-11-15T04:47:55;6.27;;;1.93;;
10416;SDS011;62605;49.432;8.680;2022-11-15T04:50:24;4.83;;;1.60;;
10416;SDS011;62605;49.432;8.680;2022-11-15T04:52:53;2.97;;;1.80;;
10416;SDS011;62605;49.432;8.680;2022-11-15T04:55:20;3.30;;;1.50;;
10416;SDS011;62605;49.432;8.680;2022-11-15T04:57:48;3.17;;;1.40;;
10416;SDS011;62605;49.432;8.680;2022-11-15T05:00:24;2.23;;;1.53;;
10416;SDS011;62605;49.432;8.680;2022-11-15T05:02:52;1.57;;;1.30;;
10416;SDS011;62605;49.432;8.680;2022-11-15T05:05:39;2.63;;;1.60;;
10416;SDS011;62605;49.432;8.680;2022-11-15T05:08:07;2.93;;;1.70;;
10416;SDS011;62605;49.432;8.680;2022-11-15T05:10:34;2.50;;;1.83;;
10416;SDS011;62605;49.432;8.680;2022-11-15T05:13:01;2.43;;;2.00;;
10416;SDS011;62605;49.432;8.680;2022-11-15T05:15:28;5.33;;;2.23;;
10416;SDS011;62605;49.432;8.680;2022-11-15T05:17:57;3.77;;;2.20;;
10416;SDS011;62605;49.432;8.680;2022-11-15T05:20:25;2.67;;;2.10;;
10416;SDS011;62605;49.432;8.680;2022-11-15T05:22:54;1.97;;;1.77;;
10416;SDS011;62605;49.432;8.680;2022-11-15T05:25:21;1.83;;;1.50;;
10416;SDS011;62605;49.432;8.680;2022-11-15T05:27:48;2.93;;;1.80;;
10416;SDS011;62605;49.432;8.680;2022-11-15T05:30:16;4.40;;;1.90;;
10416;SDS011;62605;49.432;8.680;2022-11-15T05:32:44;2.93;;;2.00;;
10416;SDS011;62605;49.432;8.680;2022-11-15T05:35:12;3.00;;;1.80;;
10416;SDS011;62605;49.432;8.680;2022-11-15T05:37:44;3.23;;;2.10;;
10416;SDS011;62605;49.432;8.680;2022-11-15T05:40:13;4.67;;;2.40;;
10416;SDS011;62605;49.432;8.680;2022-11-15T05:42:40;4.63;;;2.53;;
10416;SDS011;62605;49.432;8.680;2022-11-15T05:45:08;3.67;;;2.40;;
10416;SDS011;62605;49.432;8.680;2022-11-15T05:47:36;3.93;;;2.20;;
10416;SDS011;62605;49.432;8.680;2022-11-15T05:50:06;3.67;;;2.40;;
10416;SDS011;62605;49.432;8.680;2022-11-15T05:52:34;3.60;;;2.50;;
10416;SDS011;62605;49.432;8.680;2022-11-15T05:55:05;4.77;;;2.00;;
10416;SDS011;62605;49.432;8.680;2022-11-15T05:57:38;2.80;;;1.80;;
10416;SDS011;62605;49.432;8.680;2022-11-15T06:00:05;3.17;;;1.80;;
10416;SDS011;62605;49.432;8.680;2022-11-15T06:02:34;2.00;;;1.77;;
10416;SDS011;62605;49.432;8.680;2022-11-15T06:05:02;4.30;;;1.87;;
10416;SDS011;62605;49.432;8.680;2022-11-15T06:07:29;2.50;;;1.77;;
10416;SDS011;62605;49.432;8.680;2022-11-15T06:09:57;2.90;;;1.87;;
10416;SDS011;62605;49.432;8.680;2022-11-15T06:12:24;3.40;;;1.80;;
10416;SDS011;62605;49.432;8.680;2022-11-15T06:14:52;3.20;;;1.90;;
10416;SDS011;62605;49.432;8.680;2022-11-15T06:17:19;1.83;;;1.73;;
10416;SDS011;62605;49.432;8.680;2022-11-15T06:19:46;3.57;;;1.57;;
10416;SDS011;62605;49.432;8.680;2022-11-15T06:22:13;2.20;;;1.60;;
10416;SDS011;62605;49.432;8.680;2022-11-15T06:24:41;2.47;;;2.10;;
10416;SDS011;62605;49.432;8.680;2022-11-15T06:27:09;2.47;;;1.97;;
10416;SDS011;62605;49.432;8.680;2022-11-15T06:29:37;3.00;;;2.37;;
10416;SDS011;62605;49.432;8.680;2022-11-15T06:32:06;2.40;;;1.70;;
10416;SDS011;62605;49.432;8.680;2022-11-15T06:34:33;3.43;;;1.63;;
10416;SDS011;62605;49.432;8.680;2022-11-15T06:37:01;5.13;;;2.00;;
10416;SDS011;62605;49.432;8.680;2022-11-15T06:39:29;2.87;;;1.67;;
10416;SDS011;62605;49.432;8.680;2022-11-15T06:41:56;5.47;;;1.80;;
10416;SDS011;62605;49.432;8.680;2022-11-15T06:44:24;2.90;;;1.90;;
10416;SDS011;62605;49.432;8.680;2022-11-15T06:46:51;3.63;;;1.93;;
10416;SDS011;62605;49.432;8.680;2022-11-15T06:49:19;4.30;;;1.70;;
10416;SDS011;62605;49.432;8.680;2022-11-15T06:51:47;1.60;;;1.50;;
10416;SDS011;62605;49.432;8.680;2022-11-15T06:54:14;3.60;;;1.73;;
10416;SDS011;62605;49.432;8.680;2022-11-15T06:56:41;3.63;;;1.50;;
10416;SDS011;62605;49.432;8.680;2022-11-15T06:59:10;3.10;;;1.73;;
10416;SDS011;62605;49.432;8.680;2022-11-15T07:01:38;1.97;;;1.67;;
10416;SDS011;62605;49.432;8.680;2022-11-15T07:04:05;3.87;;;1.73;;
10416;SDS011;62605;49.432;8.680;2022-11-15T07:06:34;1.83;;;1.73;;
10416;SDS011;62605;49.432;8.680;2022-11-15T07:09:02;2.10;;;1.50;;
10416;SDS011;62605;49.432;8.680;2022-11-15T07:11:29;5.43;;;1.70;;
10416;SDS011;62605;49.432;8.680;2022-11-15T07:13:57;3.03;;;2.00;;
10416;SDS011;62605;49.432;8.680;2022-11-15T07:16:24;5.10;;;2.33;;
10416;SDS011;62605;49.432;8.680;2022-11-15T07:18:51;3.83;;;1.83;;
10416;SDS011;62605;49.432;8.680;2022-11-15T07:21:18;2.17;;;1.70;;
10416;SDS011;62605;49.432;8.680;2022-11-15T07:23:47;4.60;;;1.77;;
10416;SDS011;62605;49.432;8.680;2022-11-15T07:26:14;2.50;;;1.70;;
10416;SDS011;62605;49.432;8.680;2022-11-15T07:28:41;2.10;;;1.87;;
10416;SDS011;62605;49.432;8.680;2022-11-15T07:31:09;4.00;;;2.03;;
10416;SDS011;62605;49.432;8.680;2022-11-15T07:33:36;3.33;;;1.90;;
10416;SDS011;62605;49.432;8.680;2022-11-15T07:36:03;2.50;;;1.60;;
10416;SDS011;62605;49.432;8.680;2022-11-15T07:38:32;2.20;;;1.67;;
10416;SDS011;62605;49.432;8.680;2022-11-15T07:41:03;4.73;;;1.93;;
10416;SDS011;62605;49.432;8.680;2022-11-15T07:43:31;5.67;;;1.70;;
10416;SDS011;62605;49.432;8.680;2022-11-15T07:45:58;2.77;;;1.77;;
10416;SDS011;62605;49.432;8.680;2022-11-15T07:48:30;5.53;;;2.00;;
10416;SDS011;62605;49.432;8.680;2022-11-15T07:50:57;2.33;;;1.70;;
10416;SDS011;62605;49.432;8.680;2022-11-15T07:53:24;2.83;;;1.63;;
10416;SDS011;62605;49.432;8.680;2022-11-15T07:55:51;3.43;;;1.83;;
10416;SDS011;62605;49.432;8.680;2022-11-15T07:58:20;2.47;;;2.00;;
10416;SDS011;62605;49.432;8.680;2022-11-15T08:00:47;1.50;;;1.40;;
10416;SDS011;62605;49.432;8.680;2022-11-15T08:03:15;2.30;;;1.50;;
10416;SDS011;62605;49.432;8.680;2022-11-15T08:05:43;3.17;;;1.70;;
10416;SDS011;62605;49.432;8.680;2022-11-15T08:08:16;3.43;;;1.30;;
10416;SDS011;62605;49.432;8.680;2022-11-15T08:10:43;1.30;;;1.20;;
10416;SDS011;62605;49.432;8.680;2022-11-15T08:13:10;2.07;;;1.60;;
10416;SDS011;62605;49.432;8.680;2022-11-15T08:15:41;1.80;;;1.40;;
10416;SDS011;62605;49.432;8.680;2022-11-15T08:18:09;2.33;;;1.60;;
10416;SDS011;62605;49.432;8.680;2022-11-15T08:20:39;1.27;;;1.17;;
10416;SDS011;62605;49.432;8.680;2022-11-15T08:23:06;1.55;;;1.30;;
10416;SDS011;62605;49.432;8.680;2022-11-15T08:25:34;2.40;;;1.48;;
10416;SDS011;62605;49.432;8.680;2022-11-15T08:28:02;3.42;;;1.63;;
10416;SDS011;62605;49.432;8.680;2022-11-15T08:30:34;1.42;;;1.33;;
10416;SDS011;62605;49.432;8.680;2022-11-15T08:33:04;1.50;;;1.40;;
10416;SDS011;62605;49.432;8.680;2022-11-15T08:35:31;1.30;;;1.15;;
10416;SDS011;62605;49.432;8.680;2022-11-15T08:37:58;3.03;;;1.50;;
10416;SDS011;62605;49.432;8.680;2022-11-15T08:40:26;1.35;;;1.20;;
10416;SDS011;62605;49.432;8.680;2022-11-15T08:42:53;4.38;;;1.38;;
10416;SDS011;62605;49.432;8.680;2022-11-15T08:45:20;2.42;;;1.45;;
10416;SDS011;62605;49.432;8.680;2022-11-15T08:47:47;2.45;;;1.40;;
10416;SDS011;62605;49.432;8.680;2022-11-15T08:50:15;4.25;;;1.30;;
10416;SDS011;62605;49.432;8.680;2022-11-15T08:52:42;3.65;;;1.50;;
10416;SDS011;62605;49.432;8.680;2022-11-15T08:55:09;2.45;;;1.30;;
10416;SDS011;62605;49.432;8.680;2022-11-15T08:57:37;2.63;;;1.35;;
10416;SDS011;62605;49.432;8.680;2022-11-15T09:00:04;2.45;;;1.30;;
10416;SDS011;62605;49.432;8.680;2022-11-15T09:02:32;1.73;;;1.20;;
10416;SDS011;62605;49.432;8.680;2022-11-15T09:05:00;1.88;;;1.60;;
10416;SDS011;62605;49.432;8.680;2022-11-15T09:07:28;3.00;;;1.40;;
10416;SDS011;62605;49.432;8.680;2022-11-15T09:09:56;2.67;;;1.20;;
10416;SDS011;62605;49.432;8.680;2022-11-15T09:12:23;1.40;;;1.30;;
10416;SDS011;62605;49.432;8.680;2022-11-15T09:14:51;1.50;;;1.40;;
10416;SDS011;62605;49.432;8.680;2022-11-15T09:17:18;2.63;;;1.52;;
10416;SDS011;62605;49.432;8.680;2022-11-15T09:19:45;1.50;;;1.40;;
10416;SDS011;62605;49.432;8.680;2022-11-15T09:22:12;2.17;;;1.38;;
10416;SDS011;62605;49.432;8.680;2022-11-15T09:24:40;1.83;;;1.60;;
10416;SDS011;62605;49.432;8.680;2022-11-15T09:27:08;1.40;;;1.27;;
10416;SDS011;62605;49.432;8.680;2022-11-15T09:29:35;3.95;;;1.50;;
10416;SDS011;62605;49.432;8.680;2022-11-15T09:32:04;2.17;;;1.50;;
10416;SDS011;62605;49.432;8.680;2022-11-15T09:34:31;1.55;;;1.40;;
10416;SDS011;62605;49.432;8.680;2022-11-15T09:36:58;1.52;;;1.42;;
10416;SDS011;62605;49.432;8.680;2022-11-15T09:39:25;2.97;;;1.35;;
10416;SDS011;62605;49.432;8.680;2022-11-15T09:42:03;1.98;;;1.70;;
10416;SDS011;62605;49.432;8.680;2022-11-15T09:44:51;1.75;;;1.42;;
10416;SDS011;62605;49.432;8.680;2022-11-15T09:47:40;2.25;;;1.52;;
10416;SDS011;62605;49.432;8.680;2022-11-15T09:50:28;2.35;;;1.50;;
10416;SDS011;62605;49.432;8.680;2022-11-15T09:53:01;1.58;;;1.48;;
10416;SDS011;62605;49.432;8.680;2022-11-15T09:55:31;2.35;;;1.40;;
10416;SDS011;62605;49.432;8.680;2022-11-15T09:58:07;2.20;;;1.80;;
10416;SDS011;62605;49.432;8.680;2022-11-15T10:00:44;1.88;;;1.40;;
10416;SDS011;62605;49.432;8.680;2022-11-15T10:03:18;2.33;;;1.65;;
10416;SDS011;62605;49.432;8.680;2022-11-15T10:05:51;1.58;;;1.40;;
10416;SDS011;62605;49.432;8.680;2022-11-15T10:08:30;2.90;;;1.58;;
10416;SDS011;62605;49.432;8.680;2022-11-15T10:11:07;7.60;;;4.22;;
10416;SDS011;62605;49.432;8.680;2022-11-15T10:13:39;5.97;;;3.58;;
10416;SDS011;62605;49.432;8.680;2022-11-15T10:16:12;2.78;;;2.10;;
10416;SDS011;62605;49.432;8.680;2022-11-15T10:19:05;1.92;;;1.65;;
10416;SDS011;62605;49.432;8.680;2022-11-15T10:21:40;4.53;;;1.90;;
10416;SDS011;62605;49.432;8.680;2022-11-15T10:24:18;2.17;;;1.90;;
10416;SDS011;62605;49.432;8.680;2022-11-15T10:26:47;3.80;;;1.90;;
10416;SDS011;62605;49.432;8.680;2022-11-15T10:29:19;1.60;;;1.45;;
10416;SDS011;62605;49.432;8.680;2022-11-15T10:31:47;1.90;;;1.45;;
10416;SDS011;62605;49.432;8.680;2022-11-15T10:34:16;1.92;;;1.45;;
10416;SDS011;62605;49.432;8.680;2022-11-15T10:36:44;4.50;;;1.75;;
10416;SDS011;62605;49.432;8.680;2022-11-15T10:39:12;1.67;;;1.55;;
10416;SDS011;62605;49.432;8.680;2022-11-15T10:41:40;3.72;;;1.70;;
10416;SDS011;62605;49.432;8.680;2022-11-15T10:47:06;1.63;;;1.52;;
10416;SDS011;62605;49.432;8.680;2022-11-15T10:49:53;2.13;;;1.75;;
10416;SDS011;62605;49.432;8.680;2022-11-15T10:52:22;2.03;;;1.45;;
10416;SDS011;62605;49.432;8.680;2022-11-15T10:54:51;3.92;;;1.58;;
10416;SDS011;62605;49.432;8.680;2022-11-15T10:57:22;2.28;;;1.45;;
10416;SDS011;62605;49.432;8.680;2022-11-15T10:59:53;2.22;;;1.38;;
10416;SDS011;62605;49.432;8.680;2022-11-15T11:02:29;1.45;;;1.35;;
10416;SDS011;62605;49.432;8.680;2022-11-15T11:04:58;2.80;;;1.80;;
10416;SDS011;62605;49.432;8.680;2022-11-15T11:07:26;1.70;;;1.50;;
10416;SDS011;62605;49.432;8.680;2022-11-15T11:09:58;2.35;;;1.42;;
10416;SDS011;62605;49.432;8.680;2022-11-15T11:12:28;3.85;;;1.70;;
10416;SDS011;62605;49.432;8.680;2022-11-15T11:14:59;2.17;;;1.50;;
10416;SDS011;62605;49.432;8.680;2022-11-15T11:17:33;1.67;;;1.42;;
10416;SDS011;62605;49.432;8.680;2022-11-15T11:20:10;2.45;;;1.58;;
10416;SDS011;62605;49.432;8.680;2022-11-15T11:22:50;1.60;;;1.50;;
10416;SDS011;62605;49.432;8.680;2022-11-15T11:25:29;1.58;;;1.42;;
10416;SDS011;62605;49.432;8.680;2022-11-15T11:28:14;2.38;;;1.70;;
10416;SDS011;62605;49.432;8.680;2022-11-15T11:31:04;2.65;;;1.50;;
10416;SDS011;62605;49.432;8.680;2022-11-15T11:33:49;2.22;;;1.30;;
10416;SDS011;62605;49.432;8.680;2022-11-15T11:36:24;2.47;;;1.67;;
10416;SDS011;62605;49.432;8.680;2022-11-15T11:38:57;5.00;;;1.40;;
10416;SDS011;62605;49.432;8.680;2022-11-15T11:44:27;1.40;;;1.30;;
10416;SDS011;62605;49.432;8.680;2022-11-15T11:47:10;1.33;;;1.23;;
10416;SDS011;62605;49.432;8.680;2022-11-15T11:49:42;1.52;;;1.25;;
10416;SDS011;62605;49.432;8.680;2022-11-15T11:52:14;1.42;;;1.25;;
10416;SDS011;62605;49.432;8.680;2022-11-15T11:54:53;2.38;;;1.40;;
10416;SDS011;62605;49.432;8.680;2022-11-15T11:57:29;2.83;;;1.40;;
10416;SDS011;62605;49.432;8.680;2022-11-15T12:00:02;1.48;;;1.27;;
10416;SDS011;62605;49.432;8.680;2022-11-15T12:02:34;1.67;;;1.58;;
10416;SDS011;62605;49.432;8.680;2022-11-15T12:05:08;2.70;;;1.48;;
10416;SDS011;62605;49.432;8.680;2022-11-15T12:07:38;1.50;;;1.27;;
10416;SDS011;62605;49.432;8.680;2022-11-15T12:10:11;1.33;;;1.23;;
10416;SDS011;62605;49.432;8.680;2022-11-15T12:12:47;2.95;;;1.58;;
10416;SDS011;62605;49.432;8.680;2022-11-15T12:15:21;1.48;;;1.30;;
10416;SDS011;62605;49.432;8.680;2022-11-15T12:17:52;4.82;;;1.40;;
10416;SDS011;62605;49.432;8.680;2022-11-15T12:20:23;1.25;;;1.10;;
10416;SDS011;62605;49.432;8.680;2022-11-15T12:22:53;1.50;;;1.40;;
10416;SDS011;62605;49.432;8.680;2022-11-15T12:25:24;1.80;;;1.30;;
10416;SDS011;62605;49.432;8.680;2022-11-15T12:27:55;0.90;;;0.90;;
10416;SDS011;62605;49.432;8.680;2022-11-15T12:30:31;1.95;;;1.48;;
10416;SDS011;62605;49.432;8.680;2022-11-15T12:33:27;1.80;;;1.48;;
10416;SDS011;62605;49.432;8.680;2022-11-15T12:36:03;1.88;;;1.50;;
10416;SDS011;62605;49.432;8.680;2022-11-15T12:38:52;1.55;;;1.45;;
10416;SDS011;62605;49.432;8.680;2022-11-15T12:41:21;2.90;;;1.40;;
10416;SDS011;62605;49.432;8.680;2022-11-15T12:43:50;2.75;;;1.40;;
10416;SDS011;62605;49.432;8.680;2022-11-15T12:46:21;2.50;;;1.58;;
10416;SDS011;62605;49.432;8.680;2022-11-15T12:49:24;2.63;;;1.30;;
10416;SDS011;62605;49.432;8.680;2022-11-15T12:52:09;1.60;;;1.38;;
10416;SDS011;62605;49.432;8.680;2022-11-15T12:57:30;0.93;;;0.82;;
10416;SDS011;62605;49.432;8.680;2022-11-15T13:06:04;2.22;;;1.20;;
10416;SDS011;62605;49.432;8.680;2022-11-15T13:08:44;1.90;;;1.33;;
10416;SDS011;62605;49.432;8.680;2022-11-15T13:17:16;1.50;;;1.35;;
10416;SDS011;62605;49.432;8.680;2022-11-15T13:19:52;3.38;;;1.40;;
10416;SDS011;62605;49.432;8.680;2022-11-15T13:22:25;1.98;;;1.70;;
10416;SDS011;62605;49.432;8.680;2022-11-15T13:25:18;2.60;;;0.90;;
10416;SDS011;62605;49.432;8.680;2022-11-15T13:27:51;1.42;;;1.30;;
10416;SDS011;62605;49.432;8.680;2022-11-15T13:30:21;1.42;;;1.13;;
10416;SDS011;62605;49.432;8.680;2022-11-15T13:32:50;1.30;;;1.20;;
10416;SDS011;62605;49.432;8.680;2022-11-15T13:35:20;1.40;;;1.23;;
10416;SDS011;62605;49.432;8.680;2022-11-15T13:37:50;1.73;;;1.45;;
10416;SDS011;62605;49.432;8.680;2022-11-15T13:40:21;1.13;;;1.02;;
10416;SDS011;62605;49.432;8.680;2022-11-15T13:42:52;2.35;;;1.55;;
10416;SDS011;62605;49.432;8.680;2022-11-15T13:45:20;1.65;;;1.38;;
10416;SDS011;62605;49.432;8.680;2022-11-15T13:47:51;2.40;;;1.10;;
10416;SDS011;62605;49.432;8.680;2022-11-15T13:50:22;1.20;;;1.10;;
10416;SDS011;62605;49.432;8.680;2022-11-15T13:52:56;1.75;;;1.25;;
10416;SDS011;62605;49.432;8.680;2022-11-15T13:55:25;2.53;;;1.30;;
10416;SDS011;62605;49.432;8.680;2022-11-15T13:57:53;1.33;;;1.20;;
10416;SDS011;62605;49.432;8.680;2022-11-15T14:00:32;1.92;;;1.40;;
10416;SDS011;62605;49.432;8.680;2022-11-15T14:03:06;1.55;;;1.45;;
10416;SDS011;62605;49.432;8.680;2022-11-15T14:05:39;2.72;;;1.35;;
10416;SDS011;62605;49.432;8.680;2022-11-15T14:08:23;1.33;;;1.20;;
10416;SDS011;62605;49.432;8.680;2022-11-15T14:11:05;1.10;;;1.00;;
10416;SDS011;62605;49.432;8.680;2022-11-15T14:13:34;1.85;;;1.30;;
10416;SDS011;62605;49.432;8.680;2022-11-15T14:16:14;1.65;;;1.40;;
10416;SDS011;62605;49.432;8.680;2022-11-15T14:18:44;1.40;;;1.30;;
10416;SDS011;62605;49.432;8.680;2022-11-15T14:21:13;2.22;;;1.02;;
10416;SDS011;62605;49.432;8.680;2022-11-15T14:23:42;1.10;;;1.10;;
10416;SDS011;62605;49.432;8.680;2022-11-15T14:26:11;1.42;;;1.10;;
10416;SDS011;62605;49.432;8.680;2022-11-15T14:28:53;1.20;;;1.10;;
10416;SDS011;62605;49.432;8.680;2022-11-15T14:31:20;1.40;;;1.27;;
10416;SDS011;62605;49.432;8.680;2022-11-15T14:33:47;1.60;;;1.23;;
10416;SDS011;62605;49.432;8.680;2022-11-15T14:36:15;1.33;;;1.20;;
10416;SDS011;62605;49.432;8.680;2022-11-15T14:38:45;1.20;;;1.08;;
10416;SDS011;62605;49.432;8.680;2022-11-15T14:41:19;2.33;;;1.25;;
10416;SDS011;62605;49.432;8.680;2022-11-15T14:43:48;1.50;;;1.40;;
10416;SDS011;62605;49.432;8.680;2022-11-15T14:46:16;2.03;;;1.20;;
10416;SDS011;62605;49.432;8.680;2022-11-15T14:48:43;2.20;;;1.45;;
10416;SDS011;62605;49.432;8.680;2022-11-15T14:51:11;2.00;;;1.60;;
10416;SDS011;62605;49.432;8.680;2022-11-15T14:53:41;1.52;;;1.42;;
10416;SDS011;62605;49.432;8.680;2022-11-15T14:56:10;2.28;;;1.60;;
10416;SDS011;62605;49.432;8.680;2022-11-15T14:58:38;1.58;;;1.40;;
10416;SDS011;62605;49.432;8.680;2022-11-15T15:01:09;1.73;;;1.27;;
10416;SDS011;62605;49.432;8.680;2022-11-15T15:03:39;2.05;;;1.70;;
10416;SDS011;62605;49.432;8.680;2022-11-15T15:06:06;2.47;;;1.30;;
10416;SDS011;62605;49.432;8.680;2022-11-15T15:08:35;5.75;;;2.17;;
10416;SDS011;62605;49.432;8.680;2022-11-15T15:11:03;2.97;;;1.83;;
10416;SDS011;62605;49.432;8.680;2022-11-15T15:13:36;2.95;;;2.05;;
10416;SDS011;62605;49.432;8.680;2022-11-15T15:16:04;7.25;;;1.77;;
10416;SDS011;62605;49.432;8.680;2022-11-15T15:18:32;5.05;;;1.70;;
10416;SDS011;62605;49.432;8.680;2022-11-15T15:20:59;1.97;;;1.37;;
10416;SDS011;62605;49.432;8.680;2022-11-15T15:23:32;3.10;;;1.50;;
10416;SDS011;62605;49.432;8.680;2022-11-15T15:26:00;2.67;;;1.58;;
10416;SDS011;62605;49.432;8.680;2022-11-15T15:28:27;2.53;;;1.30;;
10416;SDS011;62605;49.432;8.680;2022-11-15T15:30:56;1.30;;;1.20;;